Time;durP1;ratioP1;P1;durP2;ratioP2;P2;SDS_P1;SDS_P2;PMS_P1;PMS_P2;Temp;Humidity;BMP_temperature;BMP_pressure;BME280_temperature;BME280_humidity;BME280_pressure;Samples;Min_cycle;Max_cycle;Signal;HPM_P1;HPM_P2
2022/11/29 00:01:31;;;;;;;26.65;10.52;;;9.30;91.40;;;;;;5113419;28;20043;-74
2022/11/29 00:03:57;;;;;;;27.88;10.05;;;9.30;91.50;;;;;;5112386;28;20016;-74
2022/11/29 00:06:26;;;;;;;28.30;11.48;;;9.30;91.70;;;;;;5113344;28;20035;-74
2022/11/29 00:08:53;;;;;;;39.20;11.45;;;9.30;91.80;;;;;;5113265;28;20039;-74
2022/11/29 00:14:11;;;;;;;37.45;13.73;;;9.40;92.00;;;;;;5113310;28;20055;-74
2022/11/29 00:16:39;;;;;;;38.13;15.27;;;9.50;92.20;;;;;;5113231;28;20111;-74
2022/11/29 00:19:05;;;;;;;38.53;13.90;;;9.60;92.20;;;;;;5112861;28;20013;-74
2022/11/29 00:21:31;;;;;;;32.80;13.52;;;9.60;92.20;;;;;;5116079;28;20054;-74
2022/11/29 00:23:57;;;;;;;40.55;14.57;;;9.70;92.30;;;;;;5116980;28;20056;-74
2022/11/29 00:26:23;;;;;;;34.78;14.43;;;9.70;92.30;;;;;;5117122;28;20036;-74
2022/11/29 00:28:49;;;;;;;38.65;14.10;;;9.80;92.30;;;;;;5117081;28;20065;-74
2022/11/29 00:31:19;;;;;;;36.05;14.02;;;9.80;92.20;;;;;;5116082;28;20032;-74
2022/11/29 00:33:45;;;;;;;32.55;13.93;;;9.80;92.30;;;;;;5116929;28;20027;-74
2022/11/29 00:36:11;;;;;;;33.58;13.35;;;9.80;92.30;;;;;;5116944;28;20077;-74
2022/11/29 00:38:37;;;;;;;33.10;14.38;;;9.80;92.30;;;;;;5115963;28;20043;-74
2022/11/29 00:41:04;;;;;;;30.17;13.38;;;9.80;92.30;;;;;;5115984;28;20032;-74
2022/11/29 00:43:29;;;;;;;33.08;14.13;;;9.90;92.30;;;;;;5116834;28;20025;-74
2022/11/29 00:45:55;;;;;;;35.78;13.88;;;9.90;92.30;;;;;;5115734;28;20035;-74
2022/11/29 00:48:21;;;;;;;31.02;13.73;;;9.90;92.30;;;;;;5116729;28;20028;-74
2022/11/29 00:50:46;;;;;;;33.88;13.68;;;9.90;92.20;;;;;;5115603;28;20028;-74
2022/11/29 00:53:12;;;;;;;33.38;13.70;;;9.90;92.20;;;;;;5116592;28;20038;-74
2022/11/29 00:55:37;;;;;;;36.00;14.05;;;9.90;92.10;;;;;;5116555;28;20088;-74
2022/11/29 00:58:03;;;;;;;31.40;13.10;;;9.90;92.10;;;;;;5098834;28;20020;-74
2022/11/29 01:00:29;;;;;;;31.35;13.23;;;9.90;92.10;;;;;;5116525;28;20020;-74
2022/11/29 01:02:54;;;;;;;26.25;12.10;;;9.80;92.10;;;;;;5115518;28;20086;-74
2022/11/29 01:05:20;;;;;;;25.60;12.13;;;9.80;92.10;;;;;;5116390;28;20028;-74
2022/11/29 01:07:46;;;;;;;25.83;11.27;;;9.80;91.90;;;;;;5116261;28;20036;-74
2022/11/29 01:10:11;;;;;;;24.58;12.10;;;9.80;91.90;;;;;;5115294;28;20047;-74
2022/11/29 01:12:38;;;;;;;22.50;11.00;;;9.80;92.00;;;;;;5116229;28;20092;-74
2022/11/29 01:15:06;;;;;;;22.50;10.52;;;9.70;92.10;;;;;;5116249;28;20031;-74
2022/11/29 01:17:34;;;;;;;39.60;10.63;;;9.80;92.00;;;;;;5116076;28;20028;-74
2022/11/29 01:20:00;;;;;;;23.52;10.82;;;9.80;91.90;;;;;;5115104;28;20013;-74
2022/11/29 01:22:26;;;;;;;25.15;11.40;;;9.70;91.90;;;;;;5115905;28;20027;-74
2022/11/29 01:24:51;;;;;;;25.45;11.65;;;9.60;92.00;;;;;;5115885;28;20054;-74
2022/11/29 01:27:17;;;;;;;24.40;10.45;;;9.60;92.10;;;;;;5115958;28;20088;-74
2022/11/29 01:29:42;;;;;;;24.45;11.48;;;9.70;92.10;;;;;;5098133;28;20024;-74
2022/11/29 01:32:08;;;;;;;23.38;10.25;;;9.70;92.00;;;;;;5113639;28;20092;-74
2022/11/29 01:34:34;;;;;;;23.63;11.55;;;9.70;91.90;;;;;;5115837;28;20073;-74
2022/11/29 01:36:59;;;;;;;22.05;10.63;;;9.70;91.90;;;;;;5115754;28;20028;-74
2022/11/29 01:39:25;;;;;;;26.92;9.95;;;9.70;91.80;;;;;;5115730;28;20035;-74
2022/11/29 01:41:51;;;;;;;35.05;10.18;;;9.70;91.70;;;;;;5114732;28;20036;-74
2022/11/29 01:44:16;;;;;;;19.65;9.48;;;9.50;91.30;;;;;;5115635;28;20043;-74
2022/11/29 01:46:44;;;;;;;25.40;10.48;;;9.50;91.60;;;;;;5115587;28;20031;-74
2022/11/29 01:49:18;;;;;;;37.33;11.98;;;9.50;91.70;;;;;;5115555;28;20028;-74
2022/11/29 01:51:58;;;;;;;32.30;15.23;;;9.40;91.60;;;;;;5114414;28;20028;-74
2022/11/29 01:54:25;;;;;;;38.28;14.65;;;9.40;91.60;;;;;;5115481;28;20073;-74
2022/11/29 01:56:51;;;;;;;31.48;14.80;;;9.50;91.50;;;;;;5115414;28;20020;-74
2022/11/29 01:59:20;;;;;;;37.65;13.95;;;9.50;91.40;;;;;;5114599;28;20020;-74
2022/11/29 02:01:46;;;;;;;35.10;15.10;;;9.40;91.30;;;;;;5115293;28;20025;-74
2022/11/29 02:04:12;;;;;;;37.53;15.65;;;9.30;91.50;;;;;;5115373;28;20030;-74
2022/11/29 02:06:39;;;;;;;42.10;18.05;;;9.30;91.50;;;;;;5115232;28;20088;-74
2022/11/29 02:09:20;;;;;;;32.28;15.45;;;9.30;91.60;;;;;;5115242;28;20051;-74
2022/11/29 02:11:49;;;;;;;30.73;13.02;;;9.40;91.60;;;;;;5115067;28;20020;-74
2022/11/29 02:14:17;;;;;;;26.98;12.50;;;9.40;91.60;;;;;;5115172;28;20028;-74
2022/11/29 02:16:49;;;;;;;31.90;14.15;;;9.40;91.60;;;;;;5114998;28;20024;-74
2022/11/29 02:19:17;;;;;;;31.67;13.53;;;9.40;91.50;;;;;;5115118;28;20024;-74
2022/11/29 02:21:51;;;;;;;28.42;13.43;;;9.40;91.50;;;;;;5114917;28;20054;-74
2022/11/29 02:24:49;;;;;;;36.10;14.05;;;9.50;91.40;;;;;;5113704;28;20044;-74
2022/11/29 02:27:43;;;;;;;32.13;13.57;;;9.40;91.30;;;;;;5114996;28;20020;-74
2022/11/29 02:30:39;;;;;;;32.88;13.50;;;9.40;91.30;;;;;;5114657;28;20024;-74
2022/11/29 02:33:20;;;;;;;30.30;12.68;;;9.30;91.40;;;;;;5114762;28;20027;-74
2022/11/29 02:36:08;;;;;;;27.83;12.23;;;9.30;91.40;;;;;;5114811;28;20020;-74
2022/11/29 02:38:50;;;;;;;27.20;11.90;;;9.30;91.40;;;;;;5114708;28;20107;-74
2022/11/29 02:41:30;;;;;;;27.63;12.45;;;9.20;91.40;;;;;;5114733;28;20016;-74
2022/11/29 02:43:59;;;;;;;25.52;12.30;;;9.20;91.40;;;;;;5114240;28;20031;-74
2022/11/29 02:46:56;;;;;;;29.98;13.50;;;9.20;91.60;;;;;;5114529;28;20479;-74
2022/11/29 02:49:31;;;;;;;29.25;13.35;;;9.20;91.60;;;;;;5114402;28;20088;-74
2022/11/29 02:52:29;;;;;;;28.77;12.85;;;9.30;91.60;;;;;;5114272;28;20028;-74
2022/11/29 02:55:02;;;;;;;29.30;12.43;;;9.30;91.50;;;;;;5113352;28;20017;-74
2022/11/29 02:57:59;;;;;;;31.63;12.68;;;9.20;91.50;;;;;;5113295;28;20023;-74
2022/11/29 03:00:25;;;;;;;28.70;12.57;;;9.20;91.50;;;;;;5078972;28;20090;-74
2022/11/29 03:02:51;;;;;;;25.60;12.05;;;9.20;91.50;;;;;;5096296;28;20036;-74
2022/11/29 03:05:35;;;;;;;27.33;12.70;;;9.20;91.60;;;;;;5114091;28;20043;-74
2022/11/29 03:08:27;;;;;;;27.15;11.85;;;9.20;91.70;;;;;;5113972;28;20032;-74
2022/11/29 03:11:23;;;;;;;24.63;12.20;;;9.20;91.70;;;;;;5114104;28;20020;-74
2022/11/29 03:14:10;;;;;;;22.85;12.15;;;9.30;91.70;;;;;;5114048;28;20027;-74
2022/11/29 03:16:55;;;;;;;24.73;12.13;;;9.30;91.70;;;;;;5112951;28;20127;-74
2022/11/29 03:19:32;;;;;;;26.65;12.00;;;9.30;91.80;;;;;;5114082;28;20394;-74
2022/11/29 03:22:25;;;;;;;28.65;12.38;;;9.30;91.80;;;;;;5114016;28;20088;-74
2022/11/29 03:24:58;;;;;;;26.75;12.20;;;9.30;91.80;;;;;;5113699;28;20056;-74
2022/11/29 03:27:39;;;;;;;30.23;13.75;;;9.30;91.90;;;;;;5113927;28;20028;-74
2022/11/29 03:30:09;;;;;;;26.02;12.55;;;9.30;92.00;;;;;;5113739;28;20099;-74
2022/11/29 03:32:54;;;;;;;32.33;13.05;;;9.40;92.10;;;;;;5112745;28;20024;-74
2022/11/29 03:35:46;;;;;;;24.08;11.73;;;9.40;92.10;;;;;;5113841;28;20048;-74
2022/11/29 03:38:33;;;;;;;31.13;11.88;;;9.40;92.00;;;;;;5112725;28;20027;-74
2022/11/29 03:41:31;;;;;;;37.90;12.77;;;9.40;92.00;;;;;;5112652;28;20036;-74
2022/11/29 03:44:14;;;;;;;37.35;12.32;;;9.40;92.00;;;;;;5113578;28;20031;-74
2022/11/29 03:47:08;;;;;;;29.73;12.43;;;9.40;92.10;;;;;;5113606;28;20028;-74
2022/11/29 03:49:48;;;;;;;34.47;13.25;;;9.40;92.10;;;;;;5113500;28;20029;-74
2022/11/29 03:52:28;;;;;;;31.00;12.70;;;9.40;92.10;;;;;;5112439;28;20028;-74
2022/11/29 03:55:14;;;;;;;34.13;12.43;;;9.40;92.20;;;;;;5115316;28;20032;-74
2022/11/29 03:57:46;;;;;;;37.42;13.45;;;9.50;92.20;;;;;;5117732;28;20079;-74
2022/11/29 04:00:13;;;;;;;30.87;13.13;;;9.50;92.30;;;;;;5117614;28;20081;-74
2022/11/29 04:03:16;;;;;;;33.55;14.07;;;9.50;92.30;;;;;;5117744;28;20285;-74
2022/11/29 04:05:47;;;;;;;33.53;13.15;;;9.50;92.20;;;;;;5116562;28;20024;-74
2022/11/29 04:08:43;;;;;;;33.15;13.88;;;9.50;92.20;;;;;;5117431;28;20051;-74
2022/11/29 04:11:29;;;;;;;33.65;13.15;;;9.50;92.20;;;;;;5117579;28;20024;-74
2022/11/29 04:14:02;;;;;;;31.70;14.02;;;9.50;92.20;;;;;;5116447;28;20037;-74
2022/11/29 04:16:45;;;;;;;32.83;13.13;;;9.50;92.20;;;;;;5117387;28;20024;-74
2022/11/29 04:19:19;;;;;;;26.90;12.13;;;9.50;92.20;;;;;;5117453;28;20024;-74
2022/11/29 04:22:00;;;;;;;32.80;13.27;;;9.50;92.20;;;;;;5117216;28;20031;-74
2022/11/29 04:24:28;;;;;;;33.05;13.77;;;9.50;92.20;;;;;;5115921;28;20048;-74
2022/11/29 04:27:21;;;;;;;27.30;12.68;;;9.40;92.20;;;;;;5117273;28;20028;-74
2022/11/29 04:29:49;;;;;;;32.03;13.43;;;9.40;92.20;;;;;;5117312;28;20027;-74
2022/11/29 04:32:40;;;;;;;31.35;13.15;;;9.40;92.30;;;;;;5115925;28;20032;-74
2022/11/29 04:35:24;;;;;;;28.58;12.65;;;9.40;92.40;;;;;;5115921;28;20034;-74
2022/11/29 04:38:15;;;;;;;31.92;13.02;;;9.40;92.40;;;;;;5116961;28;20069;-74
2022/11/29 04:41:01;;;;;;;28.92;12.77;;;9.50;92.40;;;;;;5116953;28;20032;-74
2022/11/29 04:43:38;;;;;;;29.58;12.63;;;9.40;92.30;;;;;;5116971;28;20467;-74
2022/11/29 04:46:26;;;;;;;31.02;13.18;;;9.40;92.40;;;;;;5116951;28;20028;-74
2022/11/29 04:49:08;;;;;;;33.70;13.07;;;9.30;92.50;;;;;;5116941;28;20043;-74
2022/11/29 04:51:45;;;;;;;27.00;12.73;;;9.40;92.50;;;;;;5116755;28;20028;-74
2022/11/29 04:54:35;;;;;;;31.15;13.65;;;9.40;92.50;;;;;;5116794;28;20028;-74
2022/11/29 04:57:06;;;;;;;27.38;12.55;;;9.40;92.50;;;;;;5115659;28;20221;-74
2022/11/29 04:59:43;;;;;;;33.22;13.20;;;9.30;92.60;;;;;;5116575;28;20028;-75
2022/11/29 05:02:37;;;;;;;33.03;13.52;;;9.30;92.60;;;;;;5116376;28;20036;-74
2022/11/29 05:05:23;;;;;;;32.65;13.80;;;9.40;92.60;;;;;;5115494;28;20043;-74
2022/11/29 05:08:26;;;;;;;40.78;13.13;;;9.50;92.30;;;;;;5116365;28;20024;-74
2022/11/29 05:11:03;;;;;;;;;;;9.40;92.50;;;;;;5116652;28;20107;-74
2022/11/29 05:14:07;;;;;;;27.30;12.23;;;9.30;92.60;;;;;;5116332;28;19904;-74
2022/11/29 05:17:17;;;;;;;35.33;13.80;;;9.30;92.70;;;;;;5116210;28;20027;-74
2022/11/29 05:20:16;;;;;;;35.53;13.40;;;9.30;92.80;;;;;;5116314;28;20104;-74
2022/11/29 05:23:19;;;;;;;27.67;12.75;;;9.30;92.80;;;;;;5115036;28;20024;-74
2022/11/29 05:26:10;;;;;;;38.72;14.18;;;9.30;92.70;;;;;;5116087;28;20046;-74
2022/11/29 05:28:54;;;;;;;30.13;12.90;;;9.30;92.60;;;;;;5116002;28;20042;-74
2022/11/29 05:31:49;;;;;;;31.23;12.85;;;9.40;92.70;;;;;;5115867;28;20032;-74
2022/11/29 05:34:14;;;;;;;34.03;13.30;;;9.40;92.70;;;;;;5115869;28;20024;-74
2022/11/29 05:36:45;;;;;;;37.67;13.65;;;9.40;92.60;;;;;;5115758;28;20054;-74
2022/11/29 05:39:18;;;;;;;32.70;14.52;;;9.40;92.60;;;;;;5115796;28;20028;-74
2022/11/29 05:42:03;;;;;;;35.58;14.27;;;9.40;92.60;;;;;;5115774;28;20025;-74
2022/11/29 05:44:47;;;;;;;39.90;14.93;;;9.40;92.60;;;;;;5115714;28;20048;-74
2022/11/29 05:47:20;;;;;;;39.55;14.32;;;9.40;92.60;;;;;;5115510;28;20051;-74
2022/11/29 05:49:51;;;;;;;39.10;13.80;;;9.40;92.60;;;;;;5115597;28;20069;-74
2022/11/29 05:52:24;;;;;;;38.13;14.73;;;9.40;92.70;;;;;;5114518;28;20024;-74
2022/11/29 05:55:08;;;;;;;31.83;13.00;;;9.40;92.60;;;;;;5114432;28;20026;-74
2022/11/29 05:57:57;;;;;;;36.50;14.50;;;9.40;92.60;;;;;;5115437;28;20016;-74
2022/11/29 06:00:26;;;;;;;38.53;13.68;;;9.40;92.50;;;;;;5114369;28;20050;-74
2022/11/29 06:02:54;;;;;;;39.60;14.00;;;9.40;92.60;;;;;;5115284;28;20085;-74
2022/11/29 06:05:26;;;;;;;37.33;13.02;;;9.40;92.60;;;;;;5115221;28;20020;-74
2022/11/29 06:08:15;;;;;;;41.85;13.65;;;9.50;92.60;;;;;;5114181;28;20027;-74
2022/11/29 06:11:04;;;;;;;41.40;14.45;;;9.40;92.70;;;;;;5115031;28;20106;-74
2022/11/29 06:13:50;;;;;;;40.50;13.98;;;9.40;92.70;;;;;;5115184;28;20023;-74
2022/11/29 06:16:34;;;;;;;38.38;13.77;;;9.40;92.70;;;;;;5114091;28;20055;-74
2022/11/29 06:19:22;;;;;;;44.20;13.63;;;9.40;92.70;;;;;;5114673;28;20072;-74
2022/11/29 06:22:09;;;;;;;43.30;13.10;;;9.50;92.70;;;;;;5114859;28;20090;-74
2022/11/29 06:24:55;;;;;;;40.20;12.77;;;9.50;92.70;;;;;;5114627;28;20052;-74
2022/11/29 06:27:44;;;;;;;41.60;13.85;;;9.50;92.70;;;;;;5113936;28;20050;-74
2022/11/29 06:30:19;;;;;;;38.58;14.93;;;9.50;92.70;;;;;;5114707;28;20054;-74
2022/11/29 06:33:00;;;;;;;37.97;13.63;;;9.60;92.80;;;;;;5114730;28;20027;-74
2022/11/29 06:36:05;;;;;;;34.65;13.73;;;9.60;92.70;;;;;;5114683;28;20046;-74
2022/11/29 06:38:31;;;;;;;34.47;12.90;;;9.60;92.70;;;;;;5113567;28;20031;-74
2022/11/29 06:40:58;;;;;;;40.13;13.10;;;9.50;92.60;;;;;;5114590;28;20020;-74
2022/11/29 06:43:27;;;;;;;40.67;13.05;;;9.60;92.70;;;;;;5114385;28;20051;-74
2022/11/29 06:46:14;;;;;;;43.88;14.40;;;9.60;92.70;;;;;;5114484;28;20028;-74
2022/11/29 06:48:50;;;;;;;42.03;13.43;;;9.60;92.70;;;;;;5113444;28;20099;-74
2022/11/29 06:51:29;;;;;;;42.97;13.43;;;9.50;92.70;;;;;;5114322;28;20027;-74
2022/11/29 06:54:10;;;;;;;37.42;12.00;;;9.50;92.60;;;;;;5114340;28;20076;-74
2022/11/29 06:56:47;;;;;;;43.35;13.23;;;9.40;92.70;;;;;;5114319;28;20035;-74
2022/11/29 06:59:25;;;;;;;44.67;13.90;;;9.30;92.80;;;;;;5114295;28;20028;-74
2022/11/29 07:01:54;;;;;;;45.92;13.57;;;9.40;92.80;;;;;;5114179;28;20026;-74
2022/11/29 07:04:44;;;;;;;38.50;13.23;;;9.40;92.90;;;;;;5114150;28;20028;-74
2022/11/29 07:07:17;;;;;;;46.47;13.07;;;9.40;92.90;;;;;;5114339;28;20024;-74
2022/11/29 07:09:44;;;;;;;45.90;13.57;;;9.40;93.00;;;;;;5113056;28;20023;-74
2022/11/29 07:12:10;;;;;;;46.72;13.25;;;9.30;93.00;;;;;;5113942;28;20074;-74
2022/11/29 07:14:36;;;;;;;46.33;13.68;;;9.30;93.20;;;;;;5113168;28;20048;-74
2022/11/29 07:17:43;;;;;;;41.13;13.43;;;9.20;93.30;;;;;;5112914;28;20032;-74
2022/11/29 07:20:37;;;;;;;45.45;12.90;;;9.20;93.30;;;;;;5112902;28;20036;-74
2022/11/29 07:23:05;;;;;;;36.60;11.60;;;9.30;93.20;;;;;;5113747;28;20024;-75
2022/11/29 07:25:34;;;;;;;40.75;12.57;;;9.30;93.20;;;;;;5112814;28;20059;-74
2022/11/29 07:28:10;;;;;;;35.85;11.00;;;9.40;93.20;;;;;;5113750;28;20031;-74
2022/11/29 07:31:09;;;;;;;46.42;12.95;;;9.40;93.10;;;;;;5113674;28;20035;-74
2022/11/29 07:33:42;;;;;;;50.03;13.73;;;9.40;93.10;;;;;;5113699;28;20050;-74
2022/11/29 07:36:34;;;;;;;49.03;13.77;;;9.30;93.10;;;;;;5112698;28;20020;-74
2022/11/29 07:39:09;;;;;;;47.63;13.55;;;9.40;93.10;;;;;;5113826;28;20479;-74
2022/11/29 07:41:50;;;;;;;44.75;12.48;;;9.40;93.10;;;;;;5113728;28;20084;-74
2022/11/29 07:44:45;;;;;;;43.45;13.23;;;9.40;93.50;;;;;;5113599;28;20079;-74
2022/11/29 07:47:10;;;;;;;40.15;11.98;;;9.40;93.20;;;;;;5095903;28;20040;-74
2022/11/29 07:49:36;;;;;;;40.08;12.50;;;9.40;93.20;;;;;;5113524;28;20031;-74
2022/11/29 07:52:02;;;;;;;39.25;11.60;;;9.40;93.20;;;;;;5112444;28;20028;-74
2022/11/29 07:54:28;;;;;;;30.33;11.05;;;9.40;93.20;;;;;;5113455;28;20499;-74
2022/11/29 07:56:54;;;;;;;38.55;11.40;;;9.40;93.10;;;;;;5112438;28;20017;-74
2022/11/29 07:59:20;;;;;;;33.55;11.05;;;9.50;93.10;;;;;;5113444;28;20032;-74
2022/11/29 08:01:45;;;;;;;39.70;12.27;;;9.50;93.10;;;;;;5112590;28;20052;-74
2022/11/29 08:04:11;;;;;;;30.98;10.85;;;9.50;93.10;;;;;;5113388;28;20167;-74
2022/11/29 08:06:37;;;;;;;39.90;12.13;;;9.50;93.10;;;;;;5112608;28;20024;-74
2022/11/29 08:09:03;;;;;;;36.55;11.65;;;9.50;93.00;;;;;;5112325;28;20051;-74
2022/11/29 08:11:29;;;;;;;34.20;11.18;;;9.50;93.00;;;;;;5112274;28;20088;-74
2022/11/29 08:14:03;;;;;;;32.85;10.98;;;9.50;93.00;;;;;;5113283;28;20372;-74
2022/11/29 08:16:29;;;;;;;32.67;11.70;;;9.50;92.90;;;;;;5113263;28;20472;-74
2022/11/29 08:18:55;;;;;;;33.55;10.90;;;9.50;92.90;;;;;;5113230;28;20050;-74
2022/11/29 08:21:20;;;;;;;33.63;10.63;;;9.40;92.90;;;;;;5112290;28;20475;-74
2022/11/29 08:23:47;;;;;;;27.60;10.50;;;9.40;92.90;;;;;;5113051;28;20056;-75
2022/11/29 08:26:14;;;;;;;32.55;10.60;;;9.40;92.90;;;;;;5112202;28;20020;-74
2022/11/29 08:28:39;;;;;;;33.03;10.10;;;9.40;92.90;;;;;;5113179;28;20020;-74
2022/11/29 08:31:08;;;;;;;34.13;11.43;;;9.30;92.80;;;;;;5113056;28;20109;-74
2022/11/29 08:33:37;;;;;;;25.17;9.63;;;9.30;92.90;;;;;;5113121;28;20027;-74
2022/11/29 08:36:08;;;;;;;28.85;10.32;;;9.30;93.00;;;;;;5113090;28;20028;-74
2022/11/29 08:38:34;;;;;;;28.02;10.20;;;9.30;93.10;;;;;;5112245;28;20016;-74
2022/11/29 08:41:05;;;;;;;30.77;10.40;;;9.30;93.10;;;;;;5114833;28;20043;-74
2022/11/29 08:43:31;;;;;;;28.48;10.18;;;9.30;93.00;;;;;;5116813;28;20028;-74
2022/11/29 08:45:57;;;;;;;31.17;9.65;;;9.40;93.00;;;;;;5115909;28;20032;-74
2022/11/29 08:48:24;;;;;;;30.80;11.18;;;9.40;93.00;;;;;;5116719;28;20035;-74
2022/11/29 08:50:50;;;;;;;33.83;11.00;;;9.40;93.00;;;;;;5115688;28;20024;-74
2022/11/29 08:56:02;;;;;;;31.27;10.35;;;9.50;93.40;;;;;;5116907;28;20039;-74
2022/11/29 08:58:28;;;;;;;24.15;9.18;;;9.50;93.00;;;;;;5116609;28;20054;-74
2022/11/29 09:00:54;;;;;;;31.60;8.85;;;9.50;92.90;;;;;;5116515;28;20031;-74
2022/11/29 09:06:09;;;;;;;30.40;9.75;;;9.50;92.80;;;;;;5116678;28;20067;-74
2022/11/29 09:08:35;;;;;;;31.48;9.77;;;9.40;92.90;;;;;;5116401;28;20020;-74
2022/11/29 09:11:07;;;;;;;24.88;8.57;;;9.40;93.00;;;;;;5115291;28;20024;-74
2022/11/29 09:13:33;;;;;;;27.77;9.55;;;9.50;93.00;;;;;;5116260;28;20026;-74
2022/11/29 09:15:58;;;;;;;28.05;9.10;;;9.50;92.90;;;;;;5116207;28;20035;-74
2022/11/29 09:18:27;;;;;;;28.60;9.73;;;9.50;92.80;;;;;;5115225;28;20077;-74
2022/11/29 09:20:52;;;;;;;29.77;9.75;;;9.50;92.90;;;;;;5115230;28;20030;-74
2022/11/29 09:23:18;;;;;;;27.27;9.00;;;9.40;92.80;;;;;;5114904;28;20083;-74
2022/11/29 09:25:48;;;;;;;22.23;8.07;;;9.40;92.90;;;;;;5114934;28;20052;-74
2022/11/29 09:28:14;;;;;;;26.13;7.88;;;9.50;92.90;;;;;;5116203;28;20028;-74
2022/11/29 09:30:40;;;;;;;27.63;8.98;;;9.50;92.80;;;;;;5115906;28;20027;-74
2022/11/29 09:33:05;;;;;;;25.23;8.90;;;9.50;92.80;;;;;;5114879;28;20115;-75
2022/11/29 09:35:33;;;;;;;34.63;9.45;;;9.50;92.80;;;;;;5116011;28;20028;-74
2022/11/29 09:37:59;;;;;;;23.45;8.45;;;9.50;92.80;;;;;;5115842;28;20031;-74
2022/11/29 09:40:40;;;;;;;29.65;9.55;;;9.50;92.80;;;;;;5115763;28;20024;-74
2022/11/29 09:43:44;;;;;;;26.13;9.13;;;9.50;92.70;;;;;;5115938;28;20042;-74
2022/11/29 09:46:21;;;;;;;28.83;8.82;;;9.60;92.70;;;;;;5115775;28;20058;-74
2022/11/29 09:49:11;;;;;;;28.45;8.57;;;9.60;92.80;;;;;;5115572;28;20375;-74
2022/11/29 09:52:14;;;;;;;28.30;9.38;;;9.60;92.80;;;;;;5113763;28;20087;-74
2022/11/29 09:54:48;;;;;;;26.40;9.32;;;9.60;92.70;;;;;;5115490;28;20043;-74
2022/11/29 09:57:16;;;;;;;27.48;8.82;;;9.60;92.80;;;;;;5114400;28;20016;-73
2022/11/29 09:59:46;;;;;;;27.75;8.45;;;9.60;92.70;;;;;;5114548;28;20027;-74
2022/11/29 10:02:27;;;;;;;31.98;10.23;;;9.60;92.70;;;;;;5115671;28;20051;-74
2022/11/29 10:05:17;;;;;;;31.23;9.45;;;9.60;92.70;;;;;;5115489;28;20020;-74
2022/11/29 10:07:50;;;;;;;28.02;9.30;;;9.60;92.70;;;;;;5104465;28;20036;-75
2022/11/29 10:10:24;;;;;;;24.65;8.43;;;9.60;92.70;;;;;;5114310;28;20047;-74
2022/11/29 10:13:16;;;;;;;23.77;8.77;;;9.60;92.70;;;;;;5114160;28;20023;-74
2022/11/29 10:15:47;;;;;;;19.65;7.32;;;9.60;92.70;;;;;;5115126;28;20047;-75
2022/11/29 10:18:31;;;;;;;19.58;8.15;;;9.60;92.60;;;;;;5114013;28;20026;-74
2022/11/29 10:21:03;;;;;;;23.95;8.48;;;9.60;92.60;;;;;;5115144;28;20052;-74
2022/11/29 10:23:40;;;;;;;27.55;9.27;;;9.60;92.70;;;;;;5114890;28;20048;-74
2022/11/29 10:26:07;;;;;;;22.05;8.50;;;9.60;92.70;;;;;;5114761;28;20040;-74
2022/11/29 10:28:35;;;;;;;28.50;9.82;;;9.60;92.70;;;;;;5113768;28;20032;-74
2022/11/29 10:31:38;;;;;;;26.10;8.82;;;9.60;92.70;;;;;;5114722;28;20112;-75
2022/11/29 10:34:21;;;;;;;23.83;8.35;;;9.70;92.70;;;;;;5113832;28;20042;-74
2022/11/29 10:36:58;;;;;;;23.25;8.50;;;9.70;93.10;;;;;;5113726;28;20046;-74
2022/11/29 10:39:36;;;;;;;26.35;9.73;;;9.70;92.70;;;;;;5114803;28;20020;-74
2022/11/29 10:42:05;;;;;;;25.33;9.23;;;9.70;92.70;;;;;;5113683;28;20096;-74
2022/11/29 10:44:32;;;;;;;26.08;8.80;;;9.80;92.70;;;;;;5114532;28;20042;-74
2022/11/29 10:47:00;;;;;;;22.02;8.50;;;9.80;92.70;;;;;;5114454;28;20024;-74
2022/11/29 10:49:29;;;;;;;26.27;8.70;;;9.80;92.70;;;;;;5113424;28;20024;-75
2022/11/29 10:51:55;;;;;;;21.55;7.93;;;9.80;92.60;;;;;;5114424;28;20107;-75
2022/11/29 10:54:37;;;;;;;25.77;8.68;;;9.80;92.50;;;;;;5113348;28;20024;-75
2022/11/29 10:57:12;;;;;;;21.40;8.35;;;9.80;93.00;;;;;;5114510;28;20080;-74
2022/11/29 10:59:38;;;;;;;20.27;8.25;;;9.80;92.60;;;;;;5114163;28;20020;-75
2022/11/29 11:02:18;;;;;;;19.77;7.57;;;9.80;92.60;;;;;;5096289;28;20028;-75
2022/11/29 11:04:46;;;;;;;24.58;8.10;;;9.80;92.60;;;;;;5113168;28;20069;-75
2022/11/29 11:07:41;;;;;;;21.00;7.55;;;9.80;92.50;;;;;;5114118;28;20055;-75
2022/11/29 11:10:27;;;;;;;23.83;8.65;;;9.80;92.50;;;;;;5096732;28;20100;-75
2022/11/29 11:13:05;;;;;;;19.23;8.27;;;9.80;92.50;;;;;;5114220;28;20031;-74
2022/11/29 11:15:32;;;;;;;17.55;7.22;;;9.80;92.50;;;;;;5114075;28;20019;-75
2022/11/29 11:18:05;;;;;;;19.30;7.85;;;9.80;92.50;;;;;;5113951;28;20024;-74
2022/11/29 11:20:35;;;;;;;21.13;7.65;;;9.80;92.60;;;;;;5114046;28;20026;-75
2022/11/29 11:23:31;;;;;;;23.52;8.30;;;9.80;93.00;;;;;;5113907;28;20020;-74
2022/11/29 11:26:06;;;;;;;19.23;7.70;;;9.80;92.60;;;;;;5109613;28;20044;-74
2022/11/29 11:28:50;;;;;;;21.48;7.63;;;9.90;92.60;;;;;;5113710;28;20028;-74
2022/11/29 11:31:33;;;;;;;22.90;7.22;;;9.90;92.60;;;;;;5113709;28;20028;-74
2022/11/29 11:34:27;;;;;;;16.48;6.82;;;9.90;92.60;;;;;;5113810;28;20035;-75
2022/11/29 11:37:12;;;;;;;20.67;7.38;;;9.90;92.50;;;;;;5112681;28;20054;-74
2022/11/29 11:39:38;;;;;;;18.85;6.95;;;9.90;92.50;;;;;;5098458;28;20031;-74
2022/11/29 11:44:52;;;;;;;17.98;6.68;;;9.90;92.50;;;;;;5113723;28;20044;-75
2022/11/29 11:47:23;;;;;;;18.55;6.82;;;9.90;92.40;;;;;;5113597;28;20028;-74
2022/11/29 11:49:53;;;;;;;20.55;6.88;;;9.80;92.40;;;;;;5113575;28;20024;-75
2022/11/29 11:52:26;;;;;;;21.67;7.25;;;9.90;92.30;;;;;;5113483;28;20039;-75
2022/11/29 11:54:58;;;;;;;19.73;6.70;;;9.90;92.40;;;;;;5113515;28;20020;-74
2022/11/29 11:57:25;;;;;;;17.20;6.78;;;9.80;92.30;;;;;;5113482;28;20030;-75
2022/11/29 11:59:53;;;;;;;20.30;7.30;;;9.80;92.30;;;;;;5113460;28;20024;-75
2022/11/29 12:02:36;;;;;;;16.85;7.32;;;9.80;92.30;;;;;;5113457;28;20050;-74
2022/11/29 12:05:14;;;;;;;20.13;7.55;;;9.80;92.30;;;;;;5113548;28;20028;-74
2022/11/29 12:07:47;;;;;;;20.90;7.78;;;9.80;92.30;;;;;;5112416;28;20036;-74
2022/11/29 12:10:22;;;;;;;23.08;7.70;;;9.80;92.30;;;;;;5112333;28;20087;-74
2022/11/29 12:12:49;;;;;;;21.85;6.90;;;9.80;92.40;;;;;;5113393;28;20093;-75
2022/11/29 12:15:18;;;;;;;23.38;7.78;;;9.80;92.30;;;;;;5113969;28;20031;-75
2022/11/29 12:18:08;;;;;;;22.40;8.18;;;9.80;92.30;;;;;;5116360;28;20023;-74
2022/11/29 12:20:40;;;;;;;26.83;7.85;;;9.80;92.40;;;;;;5117486;28;20024;-74
2022/11/29 12:23:11;;;;;;;17.80;7.38;;;9.80;92.40;;;;;;5117270;28;20024;-74
2022/11/29 12:26:05;;;;;;;20.60;7.83;;;9.80;92.40;;;;;;5116884;28;20081;-74
2022/11/29 12:28:38;;;;;;;18.23;6.65;;;9.90;92.40;;;;;;5117228;28;20265;-74
2022/11/29 12:31:18;;;;;;;21.58;7.25;;;9.90;92.40;;;;;;5117037;28;20426;-74
2022/11/29 12:33:51;;;;;;;19.52;7.47;;;9.90;92.30;;;;;;5116097;28;20024;-74
2022/11/29 12:36:41;;;;;;;;;;;9.90;92.30;;;;;;5117575;28;20016;-74
2022/11/29 12:39:35;;;;;;;16.60;6.30;;;9.90;92.30;;;;;;5117083;28;19904;-74
2022/11/29 12:42:17;;;;;;;21.35;7.50;;;9.80;92.30;;;;;;5116925;28;20024;-74
2022/11/29 12:44:56;;;;;;;19.73;7.82;;;9.80;92.30;;;;;;5117104;28;20028;-74
2022/11/29 12:47:58;;;;;;;21.20;7.75;;;9.80;92.30;;;;;;5117031;28;20031;-75
2022/11/29 12:50:48;;;;;;;20.13;7.03;;;9.80;92.30;;;;;;5116710;28;20115;-75
2022/11/29 12:53:32;;;;;;;21.17;7.18;;;9.80;92.30;;;;;;5115799;28;20016;-75
2022/11/29 12:56:26;;;;;;;17.73;7.05;;;9.80;92.30;;;;;;5115677;28;20032;-74
2022/11/29 12:59:02;;;;;;;20.33;6.50;;;9.80;92.00;;;;;;5107619;28;20035;-75
2022/11/29 13:01:33;;;;;;;23.80;7.10;;;9.70;92.10;;;;;;5116615;28;20026;-74
2022/11/29 13:04:19;;;;;;;34.10;10.18;;;9.70;92.20;;;;;;5116533;28;20024;-75
2022/11/29 13:07:02;;;;;;;25.77;7.78;;;9.70;92.30;;;;;;5116649;28;20032;-74
2022/11/29 13:09:57;;;;;;;24.02;7.70;;;9.70;92.30;;;;;;5115347;28;20024;-76
2022/11/29 13:12:31;;;;;;;25.17;8.07;;;9.70;92.30;;;;;;5115334;28;20096;-75
2022/11/29 13:15:15;;;;;;;24.35;8.13;;;9.70;92.30;;;;;;5116495;28;20016;-74
2022/11/29 13:17:55;;;;;;;26.52;9.02;;;9.70;92.30;;;;;;5116319;28;20020;-75
2022/11/29 13:20:36;;;;;;;23.45;8.25;;;9.70;92.30;;;;;;5116243;28;20028;-75
2022/11/29 13:23:14;;;;;;;19.58;7.32;;;9.70;92.30;;;;;;5116303;28;20035;-75
2022/11/29 13:25:44;;;;;;;28.40;9.50;;;9.60;92.40;;;;;;5115948;28;20066;-75
2022/11/29 13:28:24;;;;;;;24.52;8.68;;;9.60;92.50;;;;;;5115639;28;20024;-75
2022/11/29 13:30:53;;;;;;;28.75;8.90;;;9.70;92.50;;;;;;5115933;28;20036;-74
2022/11/29 13:33:28;;;;;;;29.10;8.30;;;9.70;92.50;;;;;;5116101;28;20017;-76
2022/11/29 13:36:17;;;;;;;24.17;8.70;;;9.80;92.50;;;;;;5115979;28;20016;-74
2022/11/29 13:39:25;;;;;;;22.42;8.35;;;9.80;92.40;;;;;;5115852;28;20090;-74